Time;durP1;ratioP1;P1;durP2;ratioP2;P2;SDS_P1;SDS_P2;PMS_P1;PMS_P2;Temp;Humidity;BMP_temperature;BMP_pressure;BME280_temperature;BME280_humidity;BME280_pressure;Samples;Min_cycle;Max_cycle;Signal;HPM_P1;HPM_P2
2021/06/10 00:01:48;;;;;;;22.25;17.05;;;13.70;99.90;;;;;;4937172;29;20031;-66
2021/06/10 00:04:14;;;;;;;21.60;16.67;;;13.80;99.90;;;;;;4936820;29;20034;-66
2021/06/10 00:06:40;;;;;;;23.10;17.50;;;13.90;99.90;;;;;;4936842;29;20566;-66
2021/06/10 00:09:06;;;;;;;25.13;17.98;;;13.90;99.90;;;;;;4937396;29;20032;-66
2021/06/10 00:11:32;;;;;;;23.60;18.77;;;13.80;99.90;;;;;;4937286;29;20034;-65
2021/06/10 00:13:58;;;;;;;21.90;18.42;;;13.80;99.90;;;;;;4936034;28;20075;-66
2021/06/10 00:16:24;;;;;;;25.50;19.23;;;13.70;99.90;;;;;;4937057;29;20053;-66
2021/06/10 00:18:52;;;;;;;25.48;19.17;;;13.80;99.90;;;;;;4936725;29;20083;-66
2021/06/10 00:21:18;;;;;;;25.70;19.17;;;13.80;99.90;;;;;;4936950;29;20031;-65
2021/06/10 00:23:44;;;;;;;25.30;19.52;;;13.80;99.90;;;;;;4935983;29;20122;-66
2021/06/10 00:26:10;;;;;;;24.13;19.73;;;13.90;99.90;;;;;;5000297;28;20047;-66
2021/06/10 00:28:36;;;;;;;23.70;18.23;;;13.90;99.90;;;;;;5036552;28;20134;-66
2021/06/10 00:31:03;;;;;;;22.10;18.77;;;13.90;99.90;;;;;;5011698;28;20029;-66
2021/06/10 00:33:29;;;;;;;21.75;19.02;;;13.90;99.90;;;;;;5037019;28;20120;-66
2021/06/10 00:35:55;;;;;;;23.52;18.77;;;13.80;99.90;;;;;;5014350;28;20587;-66
2021/06/10 00:38:21;;;;;;;23.67;19.42;;;13.90;99.90;;;;;;5036606;28;20032;-66
2021/06/10 00:40:47;;;;;;;22.55;18.00;;;13.80;99.90;;;;;;5034417;28;20425;-66
2021/06/10 00:43:12;;;;;;;22.70;18.48;;;13.80;99.90;;;;;;5034489;28;20071;-66
2021/06/10 00:45:38;;;;;;;25.15;18.70;;;13.80;99.90;;;;;;5036877;28;20403;-66
2021/06/10 00:48:05;;;;;;;25.95;20.45;;;13.80;99.90;;;;;;5035631;28;20173;-66
2021/06/10 00:50:42;;;;;;;25.88;20.73;;;13.60;99.90;;;;;;5034157;28;20044;-66
2021/06/10 00:53:08;;;;;;;24.27;19.58;;;13.60;99.90;;;;;;5034799;28;20471;-66
2021/06/10 00:55:35;;;;;;;24.17;19.42;;;13.80;99.90;;;;;;5037039;28;20052;-66
2021/06/10 00:58:01;;;;;;;25.17;19.98;;;13.70;99.90;;;;;;5036183;28;20136;-66
2021/06/10 01:00:27;;;;;;;24.45;19.92;;;13.70;99.90;;;;;;5033468;28;20056;-66
2021/06/10 01:02:53;;;;;;;29.63;21.92;;;13.70;99.90;;;;;;5034985;28;20394;-66
2021/06/10 01:05:19;;;;;;;24.63;19.88;;;13.70;99.90;;;;;;5033419;28;20028;-66
2021/06/10 01:08:13;;;;;;;23.33;18.15;;;13.80;99.90;;;;;;5035515;28;20037;-66
2021/06/10 01:10:49;;;;;;;27.67;21.70;;;13.80;99.90;;;;;;5016802;28;20025;-66
2021/06/10 01:13:45;;;;;;;26.60;21.58;;;13.90;99.90;;;;;;5034175;28;20037;-67
2021/06/10 01:16:13;;;;;;;26.50;20.10;;;13.80;99.90;;;;;;5033942;28;20041;-66
2021/06/10 01:18:41;;;;;;;26.13;21.05;;;13.80;99.90;;;;;;5035094;28;20035;-66
2021/06/10 01:21:08;;;;;;;25.25;20.02;;;13.80;99.90;;;;;;5033202;28;20047;-66
2021/06/10 01:23:49;;;;;;;25.80;19.80;;;13.70;99.90;;;;;;5016271;28;20033;-67
2021/06/10 01:27:03;;;;;;;25.20;20.10;;;13.70;99.90;;;;;;5017409;28;20142;-66
2021/06/10 01:29:29;;;;;;;22.83;19.45;;;13.60;99.90;;;;;;4994482;28;20120;-66
2021/06/10 01:31:55;;;;;;;24.90;19.42;;;13.50;99.90;;;;;;5034534;28;20061;-66
2021/06/10 01:34:23;;;;;;;28.35;21.17;;;13.50;99.90;;;;;;5035352;28;20051;-66
2021/06/10 01:36:52;;;;;;;23.77;20.48;;;13.50;99.90;;;;;;5033791;28;20041;-66
2021/06/10 01:39:21;;;;;;;25.00;20.02;;;13.60;99.90;;;;;;5034768;28;20021;-66
2021/06/10 01:41:48;;;;;;;26.75;20.65;;;13.50;99.90;;;;;;5034243;28;20030;-66
2021/06/10 01:44:16;;;;;;;27.00;20.33;;;13.40;99.90;;;;;;5036536;28;20328;-66
2021/06/10 01:46:42;;;;;;;25.33;21.20;;;13.40;99.90;;;;;;5034329;28;20025;-66
2021/06/10 01:49:11;;;;;;;28.83;21.80;;;13.30;99.90;;;;;;5032295;28;20025;-66
2021/06/10 01:51:38;;;;;;;23.23;20.17;;;13.30;99.90;;;;;;5032028;28;20554;-66
2021/06/10 01:54:07;;;;;;;23.27;19.27;;;13.30;99.90;;;;;;5017755;28;20045;-66
2021/06/10 01:56:34;;;;;;;24.42;19.30;;;13.30;99.90;;;;;;5032850;28;20037;-66
2021/06/10 01:59:01;;;;;;;23.92;20.13;;;13.50;99.90;;;;;;5034536;28;20032;-66
2021/06/10 02:01:32;;;;;;;27.48;21.15;;;13.50;99.90;;;;;;5026504;28;20521;-66
2021/06/10 02:03:59;;;;;;;23.35;19.58;;;13.40;99.90;;;;;;5032888;28;20039;-66
2021/06/10 02:06:27;;;;;;;26.85;20.85;;;13.40;99.90;;;;;;5033584;28;20048;-67
2021/06/10 02:08:54;;;;;;;27.08;20.50;;;13.50;99.90;;;;;;5035670;28;20140;-66
2021/06/10 02:11:20;;;;;;;24.65;20.45;;;13.40;99.90;;;;;;5032390;28;20025;-66
2021/06/10 02:13:48;;;;;;;24.90;19.25;;;13.40;99.90;;;;;;5031906;28;20116;-66
2021/06/10 02:16:15;;;;;;;27.73;19.60;;;13.30;99.90;;;;;;5034986;28;20160;-66
2021/06/10 02:18:43;;;;;;;25.48;19.02;;;13.30;99.90;;;;;;5033306;28;20040;-66
2021/06/10 02:21:10;;;;;;;24.83;19.33;;;13.30;99.90;;;;;;5033066;28;20463;-67
2021/06/10 02:23:41;;;;;;;23.13;18.80;;;13.30;99.90;;;;;;5032605;28;20266;-66
2021/06/10 02:26:07;;;;;;;21.98;17.42;;;13.30;99.90;;;;;;5033353;28;20041;-66
2021/06/10 02:28:34;;;;;;;27.73;19.67;;;13.40;99.90;;;;;;5034799;28;20032;-66
2021/06/10 02:31:02;;;;;;;24.15;19.05;;;13.30;99.90;;;;;;5030742;28;20033;-66
2021/06/10 02:33:28;;;;;;;24.25;17.77;;;13.30;99.90;;;;;;5035663;28;20116;-66
2021/06/10 02:35:55;;;;;;;26.40;19.30;;;13.30;99.90;;;;;;5034447;28;20531;-66
2021/06/10 02:38:22;;;;;;;23.35;19.50;;;13.30;99.90;;;;;;5033112;28;20441;-66
2021/06/10 02:40:50;;;;;;;24.92;19.30;;;13.20;99.90;;;;;;5030851;28;20124;-66
2021/06/10 02:43:17;;;;;;;22.17;18.65;;;13.10;99.90;;;;;;5035701;28;20033;-67
2021/06/10 02:45:44;;;;;;;23.83;18.63;;;13.10;99.90;;;;;;5033227;28;20044;-66
2021/06/10 02:48:11;;;;;;;25.48;19.40;;;13.10;99.90;;;;;;5034243;28;20386;-66
2021/06/10 02:50:39;;;;;;;28.90;20.00;;;13.00;99.90;;;;;;5034325;28;20182;-66
2021/06/10 02:53:06;;;;;;;25.65;19.58;;;13.10;99.90;;;;;;5032959;28;20033;-66
2021/06/10 02:55:36;;;;;;;22.90;19.02;;;13.10;99.90;;;;;;5033904;28;20037;-66
2021/06/10 02:58:03;;;;;;;25.48;18.95;;;13.20;99.90;;;;;;5032999;28;20136;-66
2021/06/10 03:00:32;;;;;;;22.85;18.80;;;13.30;99.90;;;;;;5032156;28;20033;-66
2021/06/10 03:03:00;;;;;;;24.00;19.47;;;13.30;99.90;;;;;;5034330;28;20036;-66
2021/06/10 03:05:27;;;;;;;21.65;17.42;;;13.30;99.90;;;;;;5033753;28;20957;-66
2021/06/10 03:07:54;;;;;;;20.88;16.88;;;13.30;99.90;;;;;;5033097;28;20037;-67
2021/06/10 03:10:26;;;;;;;25.10;18.35;;;13.30;99.90;;;;;;5033515;28;20473;-66
2021/06/10 03:12:53;;;;;;;22.58;18.00;;;13.20;99.90;;;;;;5033321;28;20358;-66
2021/06/10 03:15:21;;;;;;;23.10;17.77;;;13.30;99.90;;;;;;5030070;28;20037;-66
2021/06/10 03:17:47;;;;;;;22.88;18.92;;;13.30;99.90;;;;;;5035937;28;20035;-67
2021/06/10 03:20:13;;;;;;;21.92;17.55;;;13.30;99.90;;;;;;5030485;28;20151;-67
2021/06/10 03:22:40;;;;;;;23.60;17.65;;;13.40;99.90;;;;;;5037225;28;20099;-66
2021/06/10 03:25:08;;;;;;;22.25;17.90;;;13.40;99.90;;;;;;5031359;28;20060;-66
2021/06/10 03:27:35;;;;;;;25.48;18.40;;;13.40;99.90;;;;;;5034290;28;20786;-67
2021/06/10 03:30:02;;;;;;;22.45;17.00;;;13.60;99.90;;;;;;5029390;28;20041;-66
2021/06/10 03:32:28;;;;;;;23.35;17.70;;;13.70;99.90;;;;;;5032968;28;20029;-66
2021/06/10 03:34:58;;;;;;;20.67;17.92;;;13.80;99.90;;;;;;5035370;28;20025;-66
2021/06/10 03:37:24;;;;;;;19.77;16.73;;;13.90;99.90;;;;;;5034882;28;20076;-67
2021/06/10 03:39:51;;;;;;;21.17;17.42;;;13.90;99.90;;;;;;5013937;28;20110;-67
2021/06/10 03:42:19;;;;;;;20.90;17.50;;;13.90;99.90;;;;;;5033867;28;20028;-66
2021/06/10 03:44:45;;;;;;;25.55;19.70;;;14.00;99.90;;;;;;5036379;28;20510;-66
2021/06/10 03:47:15;;;;;;;25.00;18.63;;;14.00;99.90;;;;;;5036284;28;20689;-67
2021/06/10 03:49:42;;;;;;;25.75;18.70;;;14.20;99.90;;;;;;5035759;28;20032;-67
2021/06/10 03:52:08;;;;;;;21.83;18.25;;;14.10;99.90;;;;;;5018739;28;20024;-68
2021/06/10 03:54:34;;;;;;;26.92;16.85;;;14.20;99.90;;;;;;5033198;28;20598;-67
2021/06/10 03:57:00;;;;;;;23.63;19.13;;;14.20;99.90;;;;;;5037827;28;20377;-67
2021/06/10 03:59:26;;;;;;;20.58;17.92;;;14.30;99.90;;;;;;5032597;28;20044;-67
2021/06/10 04:01:52;;;;;;;23.85;19.35;;;14.40;99.90;;;;;;5035936;28;20041;-67
2021/06/10 04:04:18;;;;;;;25.73;20.15;;;14.40;99.90;;;;;;5034418;28;20032;-67
2021/06/10 04:06:45;;;;;;;25.05;20.08;;;14.40;99.90;;;;;;5034834;28;20043;-65
2021/06/10 04:09:10;;;;;;;23.85;19.10;;;14.40;99.90;;;;;;5026960;28;20029;-67
2021/06/10 04:11:40;;;;;;;24.35;18.40;;;14.50;99.90;;;;;;5034674;28;20507;-67
2021/06/10 04:14:06;;;;;;;24.33;19.25;;;14.60;99.90;;;;;;5030217;28;20036;-67
2021/06/10 04:16:32;;;;;;;26.95;20.90;;;14.70;99.90;;;;;;5030293;28;20132;-67
2021/06/10 04:18:59;;;;;;;23.95;19.08;;;14.70;99.90;;;;;;5030432;28;20036;-74
2021/06/10 04:21:25;;;;;;;23.98;20.35;;;14.70;99.90;;;;;;5036286;28;20033;-74
2021/06/10 04:23:51;;;;;;;22.98;18.83;;;14.80;99.90;;;;;;5034668;28;20025;-74
2021/06/10 04:26:18;;;;;;;26.25;21.20;;;14.80;99.90;;;;;;5036961;28;20069;-73
2021/06/10 04:28:45;;;;;;;22.75;19.23;;;14.80;99.90;;;;;;5035226;28;20456;-73
2021/06/10 04:31:13;;;;;;;27.73;20.08;;;14.80;99.90;;;;;;5036350;28;20099;-73
2021/06/10 04:33:39;;;;;;;24.90;19.10;;;14.90;99.90;;;;;;5032315;28;20028;-73
2021/06/10 04:36:05;;;;;;;24.95;19.85;;;15.00;99.90;;;;;;5032619;28;20041;-73
2021/06/10 04:38:31;;;;;;;25.55;20.00;;;15.10;99.90;;;;;;5034551;28;20369;-73
2021/06/10 04:40:57;;;;;;;25.50;18.63;;;15.20;99.90;;;;;;5030970;28;20059;-74
2021/06/10 04:43:23;;;;;;;25.63;20.63;;;15.20;99.90;;;;;;5035413;28;20374;-73
2021/06/10 04:45:49;;;;;;;23.10;18.88;;;15.30;99.90;;;;;;5031198;28;20040;-74
2021/06/10 04:48:15;;;;;;;22.33;18.17;;;15.40;99.90;;;;;;5027537;28;20033;-73
2021/06/10 04:50:41;;;;;;;30.40;21.15;;;15.50;99.90;;;;;;5029127;28;20033;-73
2021/06/10 04:53:07;;;;;;;26.67;21.58;;;15.60;99.90;;;;;;5035031;28;20036;-73
2021/06/10 04:55:34;;;;;;;24.20;19.33;;;15.70;99.90;;;;;;5034826;28;20267;-73
2021/06/10 04:58:00;;;;;;;26.75;21.88;;;15.80;99.90;;;;;;5033499;28;20059;-74
2021/06/10 05:00:27;;;;;;;25.63;21.55;;;15.90;99.90;;;;;;5031935;28;20029;-73
2021/06/10 05:02:52;;;;;;;27.48;22.30;;;15.90;99.90;;;;;;5029610;28;20029;-73
2021/06/10 05:05:18;;;;;;;28.35;22.27;;;15.90;99.90;;;;;;5028452;28;20752;-73
2021/06/10 05:07:44;;;;;;;43.78;27.02;;;15.90;99.90;;;;;;5029993;28;20041;-73
2021/06/10 05:10:11;;;;;;;25.77;20.48;;;16.10;99.90;;;;;;5034278;28;20033;-73
2021/06/10 05:12:37;;;;;;;30.48;25.60;;;16.10;99.90;;;;;;5034019;28;20036;-73
2021/06/10 05:15:06;;;;;;;32.30;23.75;;;16.20;99.90;;;;;;5033819;28;20754;-73
2021/06/10 05:17:32;;;;;;;34.88;26.92;;;16.30;99.90;;;;;;5036664;28;20056;-73
2021/06/10 05:19:58;;;;;;;30.85;24.30;;;16.30;99.90;;;;;;5037785;28;20575;-73
2021/06/10 05:22:24;;;;;;;31.83;23.90;;;16.30;99.90;;;;;;5036742;28;20033;-73
2021/06/10 05:24:49;;;;;;;27.60;23.40;;;16.50;99.90;;;;;;5034184;28;20134;-74
2021/06/10 05:27:15;;;;;;;33.20;27.80;;;16.70;99.90;;;;;;5034052;28;20036;-73
2021/06/10 05:29:41;;;;;;;35.17;28.77;;;16.90;99.90;;;;;;5036759;28;20182;-74
2021/06/10 05:32:07;;;;;;;31.65;26.10;;;17.00;99.90;;;;;;5034881;28;20048;-73
2021/06/10 05:34:34;;;;;;;34.13;27.67;;;17.10;99.90;;;;;;5036669;28;20059;-74
2021/06/10 05:37:00;;;;;;;34.22;28.08;;;17.20;99.90;;;;;;5037260;28;20041;-73
2021/06/10 05:39:26;;;;;;;34.63;29.05;;;17.30;99.90;;;;;;5036680;28;20558;-74
2021/06/10 05:41:53;;;;;;;60.20;38.53;;;17.50;99.90;;;;;;5037222;28;20032;-74
2021/06/10 05:44:19;;;;;;;37.42;30.80;;;17.60;99.90;;;;;;5035126;28;20981;-73
2021/06/10 05:46:48;;;;;;;41.65;35.20;;;17.70;99.90;;;;;;5036612;28;20090;-74
2021/06/10 05:49:14;;;;;;;39.75;34.67;;;17.90;99.90;;;;;;5034471;28;20025;-74
2021/06/10 05:51:40;;;;;;;42.40;34.50;;;17.90;99.90;;;;;;5036053;28;20080;-74
2021/06/10 05:54:06;;;;;;;42.67;35.40;;;18.00;99.90;;;;;;5034284;28;20429;-74
2021/06/10 05:56:31;;;;;;;43.17;36.97;;;18.10;99.90;;;;;;5035491;28;20037;-74
2021/06/10 05:58:57;;;;;;;44.05;36.45;;;18.20;99.90;;;;;;5036983;28;20029;-74
2021/06/10 06:01:23;;;;;;;38.42;34.20;;;18.40;99.90;;;;;;5036356;28;20133;-74
2021/06/10 06:03:49;;;;;;;40.72;34.05;;;18.70;99.90;;;;;;5036931;28;20538;-74
2021/06/10 06:06:18;;;;;;;45.70;38.08;;;18.90;99.90;;;;;;5034381;28;20651;-74
2021/06/10 06:08:44;;;;;;;41.47;35.60;;;18.90;99.90;;;;;;5034925;28;20086;-73
2021/06/10 06:11:10;;;;;;;40.28;33.55;;;19.10;99.90;;;;;;5036869;28;20041;-74
2021/06/10 06:13:47;;;;;;;38.13;33.50;;;19.30;99.90;;;;;;5034382;28;20086;-74
2021/06/10 06:16:18;;;;;;;38.22;33.20;;;19.30;99.90;;;;;;5031877;28;20123;-74
2021/06/10 06:18:44;;;;;;;38.50;33.58;;;19.30;99.90;;;;;;5036604;28;20032;-74
2021/06/10 06:21:12;;;;;;;39.20;34.90;;;19.50;99.90;;;;;;5036257;28;20029;-74
2021/06/10 06:23:41;;;;;;;36.08;31.60;;;19.60;99.90;;;;;;5034384;28;20231;-74
2021/06/10 06:26:09;;;;;;;35.80;31.70;;;19.70;99.90;;;;;;5034209;28;20192;-74
2021/06/10 06:28:40;;;;;;;34.45;30.48;;;20.10;99.90;;;;;;5036421;28;20469;-75
2021/06/10 06:31:06;;;;;;;35.45;31.77;;;20.40;99.90;;;;;;5036648;28;20040;-75
2021/06/10 06:33:32;;;;;;;32.45;28.85;;;20.40;99.90;;;;;;5036067;28;20729;-74
2021/06/10 06:35:58;;;;;;;31.58;27.38;;;20.60;99.90;;;;;;5035630;28;20384;-74
2021/06/10 06:38:23;;;;;;;32.33;28.58;;;20.90;99.90;;;;;;5035977;28;20036;-74
2021/06/10 06:40:49;;;;;;;31.98;27.83;;;21.20;99.90;;;;;;5012507;28;20025;-75
2021/06/10 06:43:16;;;;;;;30.58;27.25;;;21.00;99.90;;;;;;5034760;28;20048;-74
2021/06/10 06:45:43;;;;;;;33.28;27.75;;;21.20;99.90;;;;;;5034483;28;20029;-74
2021/06/10 06:48:09;;;;;;;29.92;25.33;;;21.50;99.90;;;;;;5034210;28;20040;-74
2021/06/10 06:50:35;;;;;;;28.40;24.58;;;21.40;99.90;;;;;;5035916;28;20498;-74
2021/06/10 06:53:02;;;;;;;28.23;23.80;;;21.50;99.90;;;;;;5035265;28;20071;-74
2021/06/10 06:55:29;;;;;;;26.17;22.48;;;21.50;99.90;;;;;;5034046;28;20423;-75
2021/06/10 06:57:55;;;;;;;23.17;20.77;;;21.40;99.90;;;;;;5035540;28;20036;-75
2021/06/10 07:00:21;;;;;;;28.05;23.58;;;21.40;99.90;;;;;;5035624;28;20028;-74
2021/06/10 07:02:48;;;;;;;30.17;23.98;;;21.40;99.90;;;;;;5034783;28;20076;-74
2021/06/10 07:05:14;;;;;;;26.05;23.15;;;21.20;99.90;;;;;;5016877;28;20029;-75
2021/06/10 07:07:41;;;;;;;28.50;23.98;;;21.10;99.90;;;;;;5034810;28;20369;-75
2021/06/10 07:10:07;;;;;;;26.33;21.83;;;21.20;99.90;;;;;;5037994;28;20507;-75
2021/06/10 07:12:33;;;;;;;25.67;21.35;;;21.30;99.90;;;;;;5039547;28;20029;-75
2021/06/10 07:14:59;;;;;;;26.08;21.50;;;21.30;99.90;;;;;;5040156;28;20047;-75
2021/06/10 07:17:25;;;;;;;26.35;20.70;;;21.30;99.90;;;;;;5039337;28;20618;-75
2021/06/10 07:19:54;;;;;;;27.92;22.20;;;21.20;99.90;;;;;;5040001;28;20031;-74
2021/06/10 07:22:20;;;;;;;23.58;20.48;;;21.10;99.90;;;;;;5038607;28;20045;-74
2021/06/10 07:24:47;;;;;;;23.27;19.73;;;21.10;99.90;;;;;;5039544;28;20510;-74
2021/06/10 07:27:17;;;;;;;24.00;19.95;;;21.20;99.90;;;;;;5039758;28;20040;-74
2021/06/10 07:29:43;;;;;;;27.80;19.55;;;21.50;99.90;;;;;;5036441;28;20060;-74
2021/06/10 07:32:10;;;;;;;23.05;19.13;;;21.60;99.90;;;;;;5037270;28;20029;-75
2021/06/10 07:34:37;;;;;;;22.83;19.45;;;21.80;99.90;;;;;;5038633;28;20029;-75
2021/06/10 07:37:06;;;;;;;22.85;19.40;;;22.00;99.90;;;;;;5039952;28;20047;-75
2021/06/10 07:39:33;;;;;;;23.38;16.27;;;22.30;99.90;;;;;;5037597;28;20067;-75
2021/06/10 07:41:59;;;;;;;17.95;14.85;;;22.60;99.90;;;;;;5039590;28;20037;-75
2021/06/10 07:44:26;;;;;;;17.23;14.10;;;22.70;99.90;;;;;;5038146;28;20641;-76
2021/06/10 07:46:52;;;;;;;17.05;13.75;;;23.10;99.90;;;;;;5037914;28;20029;-75
2021/06/10 07:49:18;;;;;;;14.75;11.77;;;23.50;99.90;;;;;;5021578;28;20369;-76
2021/06/10 07:51:44;;;;;;;13.07;10.75;;;23.70;99.90;;;;;;5038872;28;20056;-76
2021/06/10 07:54:10;;;;;;;15.38;12.43;;;24.10;99.90;;;;;;5037676;28;20484;-76
2021/06/10 07:56:36;;;;;;;14.77;10.60;;;24.50;99.90;;;;;;5038996;28;20049;-76
2021/06/10 07:59:02;;;;;;;18.20;13.05;;;24.90;99.90;;;;;;5036694;28;20110;-77
2021/06/10 08:01:27;;;;;;;15.23;11.57;;;24.60;99.90;;;;;;5039390;28;20029;-76
2021/06/10 08:03:53;;;;;;;14.25;11.43;;;24.50;99.90;;;;;;5037960;28;20060;-76
2021/06/10 08:06:20;;;;;;;14.50;11.23;;;24.60;99.90;;;;;;5039300;28;20386;-77
2021/06/10 08:08:47;;;;;;;15.02;9.45;;;24.30;99.90;;;;;;5037138;28;20518;-76
2021/06/10 08:11:13;;;;;;;11.90;8.60;;;24.40;99.90;;;;;;5037615;28;20583;-77
2021/06/10 08:13:39;;;;;;;12.95;7.88;;;24.50;99.90;;;;;;5039352;28;20033;-77
2021/06/10 08:16:05;;;;;;;14.05;10.00;;;24.70;99.90;;;;;;5036674;28;20060;-77
2021/06/10 08:18:31;;;;;;;11.63;8.95;;;25.00;99.90;;;;;;5033716;28;20029;-77
2021/06/10 08:20:58;;;;;;;10.25;7.85;;;25.10;99.90;;;;;;5038714;28;20434;-77
2021/06/10 08:23:26;;;;;;;12.65;8.68;;;25.30;99.90;;;;;;5036389;28;20041;-78
2021/06/10 08:25:54;;;;;;;10.20;7.70;;;25.30;99.90;;;;;;5037574;28;20051;-78
2021/06/10 08:28:20;;;;;;;9.05;6.45;;;25.30;99.90;;;;;;5039373;28;20442;-78
2021/06/10 08:30:46;;;;;;;10.63;6.80;;;25.20;99.90;;;;;;5038479;28;20332;-77
2021/06/10 08:33:12;;;;;;;9.65;7.20;;;25.20;99.90;;;;;;5020460;28;20059;-77
2021/06/10 08:35:38;;;;;;;8.75;6.47;;;25.20;99.90;;;;;;5037218;28;20053;-77
2021/06/10 08:38:07;;;;;;;12.05;7.68;;;25.20;99.90;;;;;;5035010;28;20600;-78
2021/06/10 08:40:36;;;;;;;8.35;5.80;;;25.10;99.90;;;;;;5013553;28;20029;-78
2021/06/10 08:43:02;;;;;;;10.30;5.90;;;25.20;99.90;;;;;;5036307;28;20468;-78
2021/06/10 08:45:30;;;;;;;11.55;6.95;;;25.50;99.90;;;;;;5038063;28;20036;-78
2021/06/10 08:47:58;;;;;;;8.60;6.05;;;25.90;99.90;;;;;;5037951;28;20526;-78
2021/06/10 08:50:27;;;;;;;6.75;4.72;;;26.00;99.90;;;;;;5037971;28;20075;-78
2021/06/10 08:52:54;;;;;;;9.23;3.80;;;26.20;99.90;;;;;;5036795;28;20029;-79
2021/06/10 08:55:21;;;;;;;8.55;3.95;;;26.40;99.90;;;;;;5035909;28;20095;-80
2021/06/10 08:57:47;;;;;;;9.05;4.47;;;26.30;99.90;;;;;;5037565;28;20110;-79
2021/06/10 09:00:14;;;;;;;7.57;3.95;;;26.30;99.90;;;;;;5037711;28;20022;-79
2021/06/10 09:02:40;;;;;;;6.88;4.70;;;26.20;99.90;;;;;;5036299;28;20389;-78
2021/06/10 09:05:11;;;;;;;6.60;3.80;;;26.20;99.90;;;;;;5037142;28;20060;-78
2021/06/10 09:07:39;;;;;;;7.75;4.60;;;26.10;99.80;;;;;;5038426;28;20986;-79
2021/06/10 09:10:07;;;;;;;7.20;3.63;;;25.80;99.90;;;;;;5036145;28;20032;-80
2021/06/10 09:12:48;;;;;;;9.43;4.80;;;26.10;99.90;;;;;;5036132;28;20818;-78
2021/06/10 09:15:16;;;;;;;6.20;4.03;;;26.30;99.10;;;;;;5037559;28;20035;-80
2021/06/10 09:17:42;;;;;;;12.90;5.18;;;26.40;99.90;;;;;;5035289;28;20041;-78
2021/06/10 09:20:27;;;;;;;10.40;5.05;;;26.30;99.60;;;;;;5037088;28;20063;-80
2021/06/10 09:23:16;;;;;;;5.93;4.15;;;26.20;99.70;;;;;;5036373;28;20039;-78
2021/06/10 09:25:44;;;;;;;7.57;4.40;;;26.10;99.90;;;;;;5037072;28;20567;-79
2021/06/10 09:28:10;;;;;;;8.02;4.22;;;26.30;99.90;;;;;;5037246;28;20047;-79
2021/06/10 09:30:43;;;;;;;4.38;2.88;;;26.60;99.30;;;;;;5036990;28;20563;-77
2021/06/10 09:33:12;;;;;;;6.60;2.92;;;26.70;99.50;;;;;;5036157;28;20036;-79
2021/06/10 09:35:40;;;;;;;5.88;2.92;;;26.60;99.80;;;;;;5035175;28;20044;-80
2021/06/10 09:38:10;;;;;;;7.05;4.97;;;26.50;99.90;;;;;;5036151;28;20044;-79
2021/06/10 09:40:36;;;;;;;6.47;3.78;;;26.60;99.90;;;;;;5034853;28;20033;-81
2021/06/10 09:43:03;;;;;;;5.20;3.83;;;26.70;99.50;;;;;;5037539;28;20037;-80
2021/06/10 09:45:30;;;;;;;6.30;3.75;;;26.70;99.90;;;;;;5036155;28;20032;-78
2021/06/10 09:48:00;;;;;;;6.78;4.20;;;27.00;99.90;;;;;;5033951;28;20025;-78
2021/06/10 09:50:30;;;;;;;6.53;3.10;;;27.00;99.90;;;;;;5037018;28;20543;-81
2021/06/10 09:52:57;;;;;;;6.57;3.15;;;27.20;98.70;;;;;;5016745;28;20111;-81
2021/06/10 09:55:34;;;;;;;7.60;3.20;;;27.40;98.80;;;;;;5035612;28;20064;-81
2021/06/10 09:58:21;;;;;;;6.53;3.08;;;27.40;98.80;;;;;;5037484;28;20475;-81
2021/06/10 10:00:50;;;;;;;5.95;2.97;;;27.30;99.10;;;;;;5034956;28;20068;-81
2021/06/10 10:03:25;;;;;;;9.27;4.28;;;27.30;99.20;;;;;;5035716;28;20428;-82
2021/06/10 10:05:57;;;;;;;5.55;4.20;;;27.30;98.90;;;;;;5035557;28;20039;-80
2021/06/10 10:08:24;;;;;;;5.82;3.75;;;27.30;98.70;;;;;;5034670;28;20130;-81
2021/06/10 10:10:50;;;;;;;4.60;3.40;;;27.20;98.50;;;;;;5037078;28;20028;-82
2021/06/10 10:13:18;;;;;;;4.18;3.28;;;27.10;99.10;;;;;;5036372;28;20056;-81
2021/06/10 10:15:44;;;;;;;3.97;3.28;;;27.20;99.50;;;;;;5035779;28;20132;-80
2021/06/10 10:18:11;;;;;;;6.50;4.00;;;27.20;99.60;;;;;;5035523;28;20033;-83
2021/06/10 10:20:38;;;;;;;7.03;3.42;;;27.20;98.00;;;;;;5035365;28;20108;-81
2021/06/10 10:23:06;;;;;;;6.00;3.47;;;27.00;99.00;;;;;;5032400;28;20059;-82
2021/06/10 10:25:31;;;;;;;5.60;3.88;;;27.00;98.70;;;;;;5035324;28;20106;-79
2021/06/10 10:27:59;;;;;;;6.63;4.47;;;27.00;98.60;;;;;;5036840;28;20548;-81
2021/06/10 10:30:26;;;;;;;6.55;4.00;;;27.10;99.20;;;;;;5034816;28;20146;-82
2021/06/10 10:32:51;;;;;;;8.02;4.65;;;27.10;99.90;;;;;;5035599;28;20472;-81
2021/06/10 10:35:23;;;;;;;6.03;4.10;;;27.00;99.90;;;;;;5035484;28;20029;-80
2021/06/10 10:37:50;;;;;;;7.20;4.13;;;26.90;97.60;;;;;;5034414;28;20031;-80
2021/06/10 10:40:28;;;;;;;5.93;4.00;;;26.50;97.80;;;;;;5036116;28;20025;-79
2021/06/10 10:42:55;;;;;;;5.78;3.58;;;26.30;99.90;;;;;;5037132;28;20025;-81
2021/06/10 10:45:26;;;;;;;5.95;4.18;;;26.40;99.90;;;;;;5040587;28;20499;-81
2021/06/10 10:48:04;;;;;;;8.07;3.70;;;26.20;98.80;;;;;;5038983;28;20033;-79
2021/06/10 10:50:38;;;;;;;6.38;3.70;;;26.20;98.00;;;;;;5040099;28;20013;-81
2021/06/10 10:53:14;;;;;;;7.35;3.92;;;26.00;99.90;;;;;;5039143;28;20429;-81
2021/06/10 10:55:41;;;;;;;5.90;3.00;;;26.10;98.50;;;;;;5037783;28;20044;-80
2021/06/10 10:58:10;;;;;;;6.13;2.75;;;26.20;99.10;;;;;;5038435;28;20194;-81
2021/06/10 11:00:49;;;;;;;;;;;26.40;98.70;;;;;;5040766;28;20028;-80
2021/06/10 11:03:19;;;;;;;7.07;3.00;;;26.50;98.80;;;;;;5038059;28;22920;-81
2021/06/10 11:05:46;;;;;;;4.93;2.50;;;26.70;99.00;;;;;;5037630;28;20044;-80
2021/06/10 11:08:12;;;;;;;5.75;2.50;;;26.90;96.60;;;;;;5036846;28;20120;-82
2021/06/10 11:10:49;;;;;;;4.45;2.03;;;26.90;96.40;;;;;;5038091;28;20443;-79
2021/06/10 11:13:29;;;;;;;4.53;2.20;;;26.70;98.10;;;;;;5039785;28;20033;-80
2021/06/10 11:16:05;;;;;;;6.53;2.42;;;26.90;97.60;;;;;;5039880;28;20033;-81
2021/06/10 11:18:48;;;;;;;4.70;2.70;;;26.80;97.10;;;;;;5037486;28;20472;-80
2021/06/10 11:21:52;;;;;;;4.60;2.40;;;26.90;97.40;;;;;;5021758;28;20047;-80
2021/06/10 11:24:21;;;;;;;5.90;2.80;;;27.10;96.60;;;;;;5039362;28;20053;-81
2021/06/10 11:27:03;;;;;;;4.60;2.58;;;27.00;96.90;;;;;;5039130;28;20482;-81
2021/06/10 11:29:30;;;;;;;3.67;2.88;;;27.10;97.50;;;;;;5039583;28;20040;-80
2021/06/10 11:32:19;;;;;;;5.85;2.17;;;27.20;96.30;;;;;;5038021;28;20025;-82
2021/06/10 11:34:54;;;;;;;4.40;2.08;;;27.20;95.60;;;;;;5036171;28;20045;-80
2021/06/10 11:37:22;;;;;;;4.57;2.92;;;27.10;95.40;;;;;;5037696;28;20041;-79
2021/06/10 11:39:48;;;;;;;2.60;1.92;;;26.90;97.30;;;;;;5037055;28;20033;-80
2021/06/10 11:42:14;;;;;;;3.38;1.98;;;27.00;94.80;;;;;;5039365;28;20044;-81
2021/06/10 11:44:45;;;;;;;7.68;2.67;;;27.10;95.00;;;;;;5038061;28;20033;-81
2021/06/10 11:47:25;;;;;;;6.28;3.30;;;27.40;96.50;;;;;;5036508;28;20032;-79
2021/06/10 11:49:51;;;;;;;5.75;3.28;;;27.40;95.20;;;;;;5038740;28;20061;-81
2021/06/10 11:52:17;;;;;;;8.00;2.50;;;27.30;97.40;;;;;;5037626;28;20032;-78
2021/06/10 11:55:05;;;;;;;4.00;2.35;;;27.30;95.00;;;;;;5038071;28;20069;-81
2021/06/10 11:57:31;;;;;;;4.05;2.63;;;27.10;95.60;;;;;;5039502;28;20351;-81
2021/06/10 11:59:56;;;;;;;3.88;2.20;;;27.00;96.60;;;;;;5037905;28;20036;-80
2021/06/10 12:02:24;;;;;;;3.85;1.70;;;27.40;96.40;;;;;;5037281;28;20041;-79
2021/06/10 12:05:05;;;;;;;3.45;2.30;;;27.40;95.00;;;;;;5037722;28;20040;-81
2021/06/10 12:07:31;;;;;;;5.72;2.45;;;27.70;95.80;;;;;;5020041;28;20427;-81
2021/06/10 12:09:58;;;;;;;3.75;1.85;;;27.90;95.30;;;;;;5039595;28;20032;-81
2021/06/10 12:12:52;;;;;;;4.07;2.47;;;27.80;94.80;;;;;;5039085;28;20608;-79
2021/06/10 12:15:22;;;;;;;5.03;3.67;;;27.90;97.00;;;;;;5033519;28;20351;-80
2021/06/10 12:18:00;;;;;;;3.03;1.70;;;28.00;95.30;;;;;;5034188;28;20500;-81
2021/06/10 12:20:31;;;;;;;5.72;3.72;;;28.10;97.20;;;;;;5038002;28;20366;-81
2021/06/10 12:22:58;;;;;;;3.45;2.30;;;28.10;95.90;;;;;;5038820;28;20025;-80
2021/06/10 12:25:27;;;;;;;4.03;1.80;;;27.90;97.30;;;;;;5037748;28;20045;-80
2021/06/10 12:27:54;;;;;;;2.78;1.77;;;28.00;95.80;;;;;;5012922;28;20389;-80
2021/06/10 12:30:32;;;;;;;6.15;3.03;;;28.00;96.20;;;;;;5037690;28;20040;-80
2021/06/10 12:33:13;;;;;;;2.30;1.77;;;28.20;95.60;;;;;;5036944;28;20032;-79
2021/06/10 12:35:39;;;;;;;5.45;2.30;;;27.90;95.70;;;;;;5037929;28;20276;-80
2021/06/10 12:38:06;;;;;;;4.97;2.13;;;27.90;97.30;;;;;;5019252;28;20447;-80
2021/06/10 12:40:44;;;;;;;5.13;2.70;;;28.10;95.90;;;;;;5036767;28;20029;-79